sensor_id;sensor_type;location;lat;lon;timestamp;temperature;humidity
22838;DHT22;11585;51.450;-0.240;2023-03-24T00:01:50;12.30;99.90
22838;DHT22;11585;51.450;-0.240;2023-03-24T00:04:17;12.30;99.90
22838;DHT22;11585;51.450;-0.240;2023-03-24T00:06:43;12.30;99.90
22838;DHT22;11585;51.450;-0.240;2023-03-24T00:09:09;12.30;99.90
22838;DHT22;11585;51.450;-0.240;2023-03-24T00:11:35;12.30;99.90
22838;DHT22;11585;51.450;-0.240;2023-03-24T00:17:23;12.30;99.90
22838;DHT22;11585;51.450;-0.240;2023-03-24T00:19:50;12.20;99.90
22838;DHT22;11585;51.450;-0.240;2023-03-24T00:25:09;12.30;99.90
22838;DHT22;11585;51.450;-0.240;2023-03-24T00:27:35;12.20;99.90
22838;DHT22;11585;51.450;-0.240;2023-03-24T00:30:03;12.20;99.90
22838;DHT22;11585;51.450;-0.240;2023-03-24T00:36:12;12.20;99.90
22838;DHT22;11585;51.450;-0.240;2023-03-24T00:38:39;12.20;99.90
22838;DHT22;11585;51.450;-0.240;2023-03-24T00:41:07;12.20;99.90
22838;DHT22;11585;51.450;-0.240;2023-03-24T00:43:35;12.20;99.90
22838;DHT22;11585;51.450;-0.240;2023-03-24T00:46:04;12.20;99.90
22838;DHT22;11585;51.450;-0.240;2023-03-24T00:48:30;12.20;99.90
22838;DHT22;11585;51.450;-0.240;2023-03-24T00:50:57;12.20;99.90
22838;DHT22;11585;51.450;-0.240;2023-03-24T00:56:32;12.20;99.90
22838;DHT22;11585;51.450;-0.240;2023-03-24T00:58:57;12.20;99.90
22838;DHT22;11585;51.450;-0.240;2023-03-24T01:01:27;12.20;99.90
22838;DHT22;11585;51.450;-0.240;2023-03-24T01:03:59;12.20;99.90
22838;DHT22;11585;51.450;-0.240;2023-03-24T01:06:25;12.10;99.90
22838;DHT22;11585;51.450;-0.240;2023-03-24T01:08:51;12.20;99.90
22838;DHT22;11585;51.450;-0.240;2023-03-24T01:11:20;12.20;99.90
22838;DHT22;11585;51.450;-0.240;2023-03-24T01:17:08;12.10;99.90
22838;DHT22;11585;51.450;-0.240;2023-03-24T01:19:34;12.10;99.90
22838;DHT22;11585;51.450;-0.240;2023-03-24T01:22:01;12.10;99.90
22838;DHT22;11585;51.450;-0.240;2023-03-24T01:24:26;12.10;99.90
22838;DHT22;11585;51.450;-0.240;2023-03-24T01:26:52;12.10;99.90
22838;DHT22;11585;51.450;-0.240;2023-03-24T01:29:18;12.10;99.90
22838;DHT22;11585;51.450;-0.240;2023-03-24T01:31:43;12.50;99.90
22838;DHT22;11585;51.450;-0.240;2023-03-24T01:34:11;12.10;99.90
22838;DHT22;11585;51.450;-0.240;2023-03-24T01:36:37;12.10;99.90
22838;DHT22;11585;51.450;-0.240;2023-03-24T01:39:02;12.10;99.90
22838;DHT22;11585;51.450;-0.240;2023-03-24T01:41:34;12.10;99.90
22838;DHT22;11585;51.450;-0.240;2023-03-24T01:47:22;12.10;99.90
22838;DHT22;11585;51.450;-0.240;2023-03-24T01:49:55;12.00;99.90
22838;DHT22;11585;51.450;-0.240;2023-03-24T01:52:41;12.00;99.90
22838;DHT22;11585;51.450;-0.240;2023-03-24T01:55:14;12.00;99.90
22838;DHT22;11585;51.450;-0.240;2023-03-24T01:57:46;12.00;99.90
22838;DHT22;11585;51.450;-0.240;2023-03-24T02:00:16;12.00;99.90
22838;DHT22;11585;51.450;-0.240;2023-03-24T02:03:05;12.00;99.90
22838;DHT22;11585;51.450;-0.240;2023-03-24T02:05:34;12.00;99.90
22838;DHT22;11585;51.450;-0.240;2023-03-24T02:08:06;12.00;99.90
22838;DHT22;11585;51.450;-0.240;2023-03-24T02:10:34;11.90;99.90
22838;DHT22;11585;51.450;-0.240;2023-03-24T02:16:03;12.00;99.90
22838;DHT22;11585;51.450;-0.240;2023-03-24T02:36:04;11.90;99.90
22838;DHT22;11585;51.450;-0.240;2023-03-24T02:41:28;11.90;99.90
22838;DHT22;11585;51.450;-0.240;2023-03-24T02:44:04;11.90;99.90
22838;DHT22;11585;51.450;-0.240;2023-03-24T02:46:43;11.90;99.90
22838;DHT22;11585;51.450;-0.240;2023-03-24T02:52:52;11.90;99.90
22838;DHT22;11585;51.450;-0.240;2023-03-24T02:56:01;11.90;99.90
22838;DHT22;11585;51.450;-0.240;2023-03-24T02:58:12;11.80;99.90
22838;DHT22;11585;51.450;-0.240;2023-03-24T03:00:59;11.80;99.90
22838;DHT22;11585;51.450;-0.240;2023-03-24T03:03:35;11.80;99.90
22838;DHT22;11585;51.450;-0.240;2023-03-24T03:06:24;11.80;99.90
22838;DHT22;11585;51.450;-0.240;2023-03-24T03:08:51;11.80;99.90
22838;DHT22;11585;51.450;-0.240;2023-03-24T03:11:18;11.80;99.90
22838;DHT22;11585;51.450;-0.240;2023-03-24T03:17:12;11.80;99.90
22838;DHT22;11585;51.450;-0.240;2023-03-24T03:19:44;11.70;99.90
22838;DHT22;11585;51.450;-0.240;2023-03-24T03:22:27;11.70;99.90
22838;DHT22;11585;51.450;-0.240;2023-03-24T03:24:56;11.70;99.90
22838;DHT22;11585;51.450;-0.240;2023-03-24T03:27:28;11.70;99.90
22838;DHT22;11585;51.450;-0.240;2023-03-24T03:30:06;11.70;99.90
22838;DHT22;11585;51.450;-0.240;2023-03-24T03:32:36;11.70;99.90
22838;DHT22;11585;51.450;-0.240;2023-03-24T03:35:28;11.70;99.90
22838;DHT22;11585;51.450;-0.240;2023-03-24T03:40:48;11.70;99.90
22838;DHT22;11585;51.450;-0.240;2023-03-24T03:43:35;11.70;99.90
22838;DHT22;11585;51.450;-0.240;2023-03-24T03:46:02;11.70;99.90
22838;DHT22;11585;51.450;-0.240;2023-03-24T03:48:28;11.70;99.90
22838;DHT22;11585;51.450;-0.240;2023-03-24T03:50:54;11.60;99.90
22838;DHT22;11585;51.450;-0.240;2023-03-24T03:56:42;11.60;99.90
22838;DHT22;11585;51.450;-0.240;2023-03-24T03:59:21;11.60;99.90
22838;DHT22;11585;51.450;-0.240;2023-03-24T04:01:47;11.60;99.90
22838;DHT22;11585;51.450;-0.240;2023-03-24T04:16:35;11.60;99.90
22838;DHT22;11585;51.450;-0.240;2023-03-24T04:22:05;11.60;99.90
22838;DHT22;11585;51.450;-0.240;2023-03-24T04:24:56;11.60;99.90
22838;DHT22;11585;51.450;-0.240;2023-03-24T04:35:10;11.50;99.90
22838;DHT22;11585;51.450;-0.240;2023-03-24T04:37:37;11.50;99.90
22838;DHT22;11585;51.450;-0.240;2023-03-24T04:40:12;11.50;99.90
22838;DHT22;11585;51.450;-0.240;2023-03-24T04:46:02;11.50;99.90
22838;DHT22;11585;51.450;-0.240;2023-03-24T04:48:29;11.50;99.90
22838;DHT22;11585;51.450;-0.240;2023-03-24T04:50:57;11.40;99.90
22838;DHT22;11585;51.450;-0.240;2023-03-24T04:56:39;11.50;99.90
22838;DHT22;11585;51.450;-0.240;2023-03-24T04:59:05;11.50;99.90
22838;DHT22;11585;51.450;-0.240;2023-03-24T05:01:34;11.50;99.90
22838;DHT22;11585;51.450;-0.240;2023-03-24T05:07:23;11.50;99.90
22838;DHT22;11585;51.450;-0.240;2023-03-24T05:09:49;11.40;99.90
22838;DHT22;11585;51.450;-0.240;2023-03-24T05:12:34;11.40;99.90
22838;DHT22;11585;51.450;-0.240;2023-03-24T05:14:59;11.50;99.90
22838;DHT22;11585;51.450;-0.240;2023-03-24T05:17:26;11.50;99.90
22838;DHT22;11585;51.450;-0.240;2023-03-24T05:19:51;11.40;99.90
22838;DHT22;11585;51.450;-0.240;2023-03-24T05:25:39;11.40;99.90
22838;DHT22;11585;51.450;-0.240;2023-03-24T05:28:05;11.40;99.90
22838;DHT22;11585;51.450;-0.240;2023-03-24T05:30:31;11.40;99.90
22838;DHT22;11585;51.450;-0.240;2023-03-24T05:36:01;11.40;99.90
22838;DHT22;11585;51.450;-0.240;2023-03-24T05:38:27;11.40;99.90
22838;DHT22;11585;51.450;-0.240;2023-03-24T05:40:56;11.40;99.90
22838;DHT22;11585;51.450;-0.240;2023-03-24T05:46:44;11.40;99.90
22838;DHT22;11585;51.450;-0.240;2023-03-24T05:49:10;11.40;99.90
22838;DHT22;11585;51.450;-0.240;2023-03-24T05:51:36;11.30;99.90
22838;DHT22;11585;51.450;-0.240;2023-03-24T05:56:51;11.40;99.90
22838;DHT22;11585;51.450;-0.240;2023-03-24T05:59:16;11.40;99.90
22838;DHT22;11585;51.450;-0.240;2023-03-24T06:01:42;11.40;99.90
22838;DHT22;11585;51.450;-0.240;2023-03-24T06:07:30;11.40;99.90
22838;DHT22;11585;51.450;-0.240;2023-03-24T06:09:57;11.40;99.90
22838;DHT22;11585;51.450;-0.240;2023-03-24T06:12:28;11.30;99.90
22838;DHT22;11585;51.450;-0.240;2023-03-24T06:14:56;11.30;99.90
22838;DHT22;11585;51.450;-0.240;2023-03-24T06:17:22;11.30;99.90
22838;DHT22;11585;51.450;-0.240;2023-03-24T06:19:49;11.30;99.90
22838;DHT22;11585;51.450;-0.240;2023-03-24T06:22:16;11.40;99.90
22838;DHT22;11585;51.450;-0.240;2023-03-24T06:24:42;11.30;99.90
22838;DHT22;11585;51.450;-0.240;2023-03-24T06:27:09;11.30;99.90
22838;DHT22;11585;51.450;-0.240;2023-03-24T06:29:35;11.30;99.90
22838;DHT22;11585;51.450;-0.240;2023-03-24T06:32:01;11.30;99.90
22838;DHT22;11585;51.450;-0.240;2023-03-24T06:37:48;11.30;99.90
22838;DHT22;11585;51.450;-0.240;2023-03-24T06:40:14;11.30;99.90
22838;DHT22;11585;51.450;-0.240;2023-03-24T06:43:02;11.30;99.90
22838;DHT22;11585;51.450;-0.240;2023-03-24T06:45:28;11.30;99.90
22838;DHT22;11585;51.450;-0.240;2023-03-24T06:47:54;11.30;99.90
22838;DHT22;11585;51.450;-0.240;2023-03-24T06:50:23;11.30;99.90
22838;DHT22;11585;51.450;-0.240;2023-03-24T06:56:02;11.30;99.90
22838;DHT22;11585;51.450;-0.240;2023-03-24T06:58:27;11.30;99.90
22838;DHT22;11585;51.450;-0.240;2023-03-24T07:00:53;11.60;99.90
22838;DHT22;11585;51.450;-0.240;2023-03-24T07:06:41;11.30;99.90
22838;DHT22;11585;51.450;-0.240;2023-03-24T07:09:08;11.40;99.90
22838;DHT22;11585;51.450;-0.240;2023-03-24T07:11:34;11.30;99.90
22838;DHT22;11585;51.450;-0.240;2023-03-24T07:14:18;11.30;99.90
22838;DHT22;11585;51.450;-0.240;2023-03-24T07:16:46;11.30;99.90
22838;DHT22;11585;51.450;-0.240;2023-03-24T07:19:12;11.40;99.90
22838;DHT22;11585;51.450;-0.240;2023-03-24T07:21:37;11.30;99.90
22838;DHT22;11585;51.450;-0.240;2023-03-24T07:27:06;11.40;99.90
22838;DHT22;11585;51.450;-0.240;2023-03-24T07:29:32;11.30;99.90
22838;DHT22;11585;51.450;-0.240;2023-03-24T07:31:57;11.60;99.90
22838;DHT22;11585;51.450;-0.240;2023-03-24T07:34:27;11.40;99.90
22838;DHT22;11585;51.450;-0.240;2023-03-24T07:36:53;11.30;99.90
22838;DHT22;11585;51.450;-0.240;2023-03-24T07:39:19;11.40;99.90
22838;DHT22;11585;51.450;-0.240;2023-03-24T07:41:45;11.40;99.90
22838;DHT22;11585;51.450;-0.240;2023-03-24T07:44:31;11.40;99.90
22838;DHT22;11585;51.450;-0.240;2023-03-24T07:46:56;11.40;99.90
22838;DHT22;11585;51.450;-0.240;2023-03-24T07:49:22;11.40;99.90
22838;DHT22;11585;51.450;-0.240;2023-03-24T07:51:48;11.40;99.90
22838;DHT22;11585;51.450;-0.240;2023-03-24T07:57:35;11.50;99.90
22838;DHT22;11585;51.450;-0.240;2023-03-24T08:00:04;11.50;99.90
22838;DHT22;11585;51.450;-0.240;2023-03-24T08:06:01;11.60;99.90
22838;DHT22;11585;51.450;-0.240;2023-03-24T08:08:27;11.60;99.90
22838;DHT22;11585;51.450;-0.240;2023-03-24T08:10:53;11.60;99.90
22838;DHT22;11585;51.450;-0.240;2023-03-24T08:16:40;11.60;99.90
22838;DHT22;11585;51.450;-0.240;2023-03-24T08:19:06;11.60;99.90
22838;DHT22;11585;51.450;-0.240;2023-03-24T08:21:32;11.60;99.90
22838;DHT22;11585;51.450;-0.240;2023-03-24T08:27:01;11.70;99.90
22838;DHT22;11585;51.450;-0.240;2023-03-24T08:29:31;11.70;99.90
22838;DHT22;11585;51.450;-0.240;2023-03-24T08:31:59;11.70;99.90
22838;DHT22;11585;51.450;-0.240;2023-03-24T08:34:25;11.70;99.90
22838;DHT22;11585;51.450;-0.240;2023-03-24T08:36:51;11.80;99.90
22838;DHT22;11585;51.450;-0.240;2023-03-24T08:39:17;11.80;99.90
22838;DHT22;11585;51.450;-0.240;2023-03-24T08:41:43;11.90;99.90
22838;DHT22;11585;51.450;-0.240;2023-03-24T08:44:12;11.90;99.90
22838;DHT22;11585;51.450;-0.240;2023-03-24T08:46:39;11.90;99.90
22838;DHT22;11585;51.450;-0.240;2023-03-24T08:49:04;11.90;99.90
22838;DHT22;11585;51.450;-0.240;2023-03-24T08:51:31;11.90;99.90
22838;DHT22;11585;51.450;-0.240;2023-03-24T08:53:58;12.10;99.90
22838;DHT22;11585;51.450;-0.240;2023-03-24T08:56:24;12.00;99.90
22838;DHT22;11585;51.450;-0.240;2023-03-24T08:58:50;12.00;99.90
22838;DHT22;11585;51.450;-0.240;2023-03-24T09:01:21;12.10;99.90
22838;DHT22;11585;51.450;-0.240;2023-03-24T09:06:50;12.10;99.90
22838;DHT22;11585;51.450;-0.240;2023-03-24T09:09:20;12.10;99.90
22838;DHT22;11585;51.450;-0.240;2023-03-24T09:11:45;12.00;99.90
22838;DHT22;11585;51.450;-0.240;2023-03-24T09:17:35;12.10;99.90
22838;DHT22;11585;51.450;-0.240;2023-03-24T09:20:01;12.20;99.90
22838;DHT22;11585;51.450;-0.240;2023-03-24T09:25:54;12.20;99.90
22838;DHT22;11585;51.450;-0.240;2023-03-24T09:28:21;12.10;99.90
22838;DHT22;11585;51.450;-0.240;2023-03-24T09:30:47;12.20;99.90
22838;DHT22;11585;51.450;-0.240;2023-03-24T09:36:34;12.20;99.90
22838;DHT22;11585;51.450;-0.240;2023-03-24T09:39:00;12.20;99.90
22838;DHT22;11585;51.450;-0.240;2023-03-24T09:41:29;12.20;99.90
22838;DHT22;11585;51.450;-0.240;2023-03-24T09:48:02;12.30;99.90
22838;DHT22;11585;51.450;-0.240;2023-03-24T09:50:26;12.30;99.90
22838;DHT22;11585;51.450;-0.240;2023-03-24T09:53:08;12.40;99.90
22838;DHT22;11585;51.450;-0.240;2023-03-24T09:55:38;12.30;99.90
22838;DHT22;11585;51.450;-0.240;2023-03-24T09:58:05;12.30;99.90
22838;DHT22;11585;51.450;-0.240;2023-03-24T10:00:35;12.30;99.90
22838;DHT22;11585;51.450;-0.240;2023-03-24T10:06:26;12.40;99.90
22838;DHT22;11585;51.450;-0.240;2023-03-24T10:09:28;12.40;99.90
22838;DHT22;11585;51.450;-0.240;2023-03-24T10:17:16;12.40;99.90
22838;DHT22;11585;51.450;-0.240;2023-03-24T10:22:43;12.50;99.90
22838;DHT22;11585;51.450;-0.240;2023-03-24T10:25:39;12.50;99.90
22838;DHT22;11585;51.450;-0.240;2023-03-24T10:30:35;12.50;99.90
22838;DHT22;11585;51.450;-0.240;2023-03-24T10:36:16;12.60;99.90
22838;DHT22;11585;51.450;-0.240;2023-03-24T10:38:43;12.50;99.90
22838;DHT22;11585;51.450;-0.240;2023-03-24T10:41:21;12.60;99.90
22838;DHT22;11585;51.450;-0.240;2023-03-24T10:43:49;12.60;99.90
22838;DHT22;11585;51.450;-0.240;2023-03-24T10:46:18;12.60;99.90
22838;DHT22;11585;51.450;-0.240;2023-03-24T10:48:48;12.70;99.90
22838;DHT22;11585;51.450;-0.240;2023-03-24T10:51:18;12.70;99.90
22838;DHT22;11585;51.450;-0.240;2023-03-24T10:53:46;12.70;99.90
22838;DHT22;11585;51.450;-0.240;2023-03-24T10:56:16;12.80;99.90
22838;DHT22;11585;51.450;-0.240;2023-03-24T10:58:43;12.80;99.90
22838;DHT22;11585;51.450;-0.240;2023-03-24T11:01:27;12.80;99.90
22838;DHT22;11585;51.450;-0.240;2023-03-24T11:04:04;12.90;99.90
22838;DHT22;11585;51.450;-0.240;2023-03-24T11:06:31;13.00;99.90
22838;DHT22;11585;51.450;-0.240;2023-03-24T11:11:42;13.00;99.90
22838;DHT22;11585;51.450;-0.240;2023-03-24T11:14:22;13.00;99.90
22838;DHT22;11585;51.450;-0.240;2023-03-24T11:16:51;13.00;99.90
22838;DHT22;11585;51.450;-0.240;2023-03-24T11:19:22;13.10;99.90
22838;DHT22;11585;51.450;-0.240;2023-03-24T11:21:50;13.10;99.90
22838;DHT22;11585;51.450;-0.240;2023-03-24T11:24:18;13.10;99.90
22838;DHT22;11585;51.450;-0.240;2023-03-24T11:26:49;13.20;99.90
22838;DHT22;11585;51.450;-0.240;2023-03-24T11:29:20;13.20;99.90
22838;DHT22;11585;51.450;-0.240;2023-03-24T11:31:57;13.30;99.90
22838;DHT22;11585;51.450;-0.240;2023-03-24T11:34:48;13.30;99.90
22838;DHT22;11585;51.450;-0.240;2023-03-24T11:37:19;13.40;99.90
22838;DHT22;11585;51.450;-0.240;2023-03-24T11:40:24;13.30;99.90
22838;DHT22;11585;51.450;-0.240;2023-03-24T11:45:38;13.40;99.90
22838;DHT22;11585;51.450;-0.240;2023-03-24T11:48:20;13.40;99.90
22838;DHT22;11585;51.450;-0.240;2023-03-24T11:50:48;13.40;99.90
22838;DHT22;11585;51.450;-0.240;2023-03-24T11:53:20;13.40;99.90
22838;DHT22;11585;51.450;-0.240;2023-03-24T11:56:06;13.40;99.90
22838;DHT22;11585;51.450;-0.240;2023-03-24T12:04:18;13.40;99.90
22838;DHT22;11585;51.450;-0.240;2023-03-24T12:09:21;13.40;99.90
22838;DHT22;11585;51.450;-0.240;2023-03-24T12:17:27;13.40;99.90
22838;DHT22;11585;51.450;-0.240;2023-03-24T12:20:19;13.30;99.90
22838;DHT22;11585;51.450;-0.240;2023-03-24T12:23:06;13.30;99.90
22838;DHT22;11585;51.450;-0.240;2023-03-24T12:25:47;13.30;99.90
22838;DHT22;11585;51.450;-0.240;2023-03-24T12:31:17;13.20;99.90
22838;DHT22;11585;51.450;-0.240;2023-03-24T12:39:34;13.10;99.90
22838;DHT22;11585;51.450;-0.240;2023-03-24T12:42:13;13.00;99.90
22838;DHT22;11585;51.450;-0.240;2023-03-24T12:44:43;13.00;99.90
22838;DHT22;11585;51.450;-0.240;2023-03-24T12:47:41;13.00;99.90
22838;DHT22;11585;51.450;-0.240;2023-03-24T12:58:53;12.80;99.90
22838;DHT22;11585;51.450;-0.240;2023-03-24T13:01:40;12.80;99.90
22838;DHT22;11585;51.450;-0.240;2023-03-24T13:04:17;12.70;99.90
22838;DHT22;11585;51.450;-0.240;2023-03-24T13:14:50;12.50;99.90
22838;DHT22;11585;51.450;-0.240;2023-03-24T13:17:29;12.40;99.90
22838;DHT22;11585;51.450;-0.240;2023-03-24T13:19:56;12.40;99.90
22838;DHT22;11585;51.450;-0.240;2023-03-24T13:22:42;12.30;99.90
22838;DHT22;11585;51.450;-0.240;2023-03-24T13:25:44;12.40;99.90
22838;DHT22;11585;51.450;-0.240;2023-03-24T13:28:28;12.30;99.90
22838;DHT22;11585;51.450;-0.240;2023-03-24T13:30:57;12.30;99.90
22838;DHT22;11585;51.450;-0.240;2023-03-24T13:33:29;12.30;99.90
22838;DHT22;11585;51.450;-0.240;2023-03-24T13:36:20;12.30;99.90
22838;DHT22;11585;51.450;-0.240;2023-03-24T13:38:48;12.30;99.90
22838;DHT22;11585;51.450;-0.240;2023-03-24T13:41:21;12.30;99.90
22838;DHT22;11585;51.450;-0.240;2023-03-24T13:44:01;12.30;99.90
22838;DHT22;11585;51.450;-0.240;2023-03-24T13:46:29;12.30;99.90
22838;DHT22;11585;51.450;-0.240;2023-03-24T13:48:56;12.30;99.90
22838;DHT22;11585;51.450;-0.240;2023-03-24T13:51:35;12.30;99.90
22838;DHT22;11585;51.450;-0.240;2023-03-24T13:54:20;12.40;99.90
22838;DHT22;11585;51.450;-0.240;2023-03-24T13:57:10;12.40;99.90
22838;DHT22;11585;51.450;-0.240;2023-03-24T13:59:56;12.40;99.90
22838;DHT22;11585;51.450;-0.240;2023-03-24T14:02:41;12.50;99.90
22838;DHT22;11585;51.450;-0.240;2023-03-24T14:08:10;12.50;99.90
22838;DHT22;11585;51.450;-0.240;2023-03-24T14:10:44;12.40;99.90
22838;DHT22;11585;51.450;-0.240;2023-03-24T14:15:51;12.60;99.90
22838;DHT22;11585;51.450;-0.240;2023-03-24T14:23:48;12.60;99.90
22838;DHT22;11585;51.450;-0.240;2023-03-24T14:28:47;12.70;99.90
22838;DHT22;11585;51.450;-0.240;2023-03-24T14:36:32;12.80;99.90
22838;DHT22;11585;51.450;-0.240;2023-03-24T14:39:35;12.80;99.90
22838;DHT22;11585;51.450;-0.240;2023-03-24T14:42:27;12.80;99.90
22838;DHT22;11585;51.450;-0.240;2023-03-24T14:44:54;12.80;99.90
22838;DHT22;11585;51.450;-0.240;2023-03-24T14:47:22;12.80;99.90
22838;DHT22;11585;51.450;-0.240;2023-03-24T14:49:51;12.80;99.90
22838;DHT22;11585;51.450;-0.240;2023-03-24T14:54:59;12.90;99.90
22838;DHT22;11585;51.450;-0.240;2023-03-24T14:57:32;12.90;99.90
22838;DHT22;11585;51.450;-0.240;2023-03-24T15:03:30;13.00;99.90
22838;DHT22;11585;51.450;-0.240;2023-03-24T15:06:18;12.90;99.90
22838;DHT22;11585;51.450;-0.240;2023-03-24T15:08:53;12.90;99.90
22838;DHT22;11585;51.450;-0.240;2023-03-24T15:11:26;12.90;99.90
22838;DHT22;11585;51.450;-0.240;2023-03-24T15:14:34;13.00;99.90
22838;DHT22;11585;51.450;-0.240;2023-03-24T15:17:17;13.00;99.90
22838;DHT22;11585;51.450;-0.240;2023-03-24T15:19:49;13.10;99.90
22838;DHT22;11585;51.450;-0.240;2023-03-24T15:22:21;12.90;99.90
22838;DHT22;11585;51.450;-0.240;2023-03-24T15:24:48;13.00;99.90
22838;DHT22;11585;51.450;-0.240;2023-03-24T15:29:42;13.20;99.90
22838;DHT22;11585;51.450;-0.240;2023-03-24T15:32:18;12.90;99.90
22838;DHT22;11585;51.450;-0.240;2023-03-24T15:34:53;13.00;99.90
22838;DHT22;11585;51.450;-0.240;2023-03-24T15:37:48;13.00;99.90
22838;DHT22;11585;51.450;-0.240;2023-03-24T15:46:28;13.00;99.90
22838;DHT22;11585;51.450;-0.240;2023-03-24T15:48:55;12.90;99.90
22838;DHT22;11585;51.450;-0.240;2023-03-24T15:51:45;13.00;99.90
22838;DHT22;11585;51.450;-0.240;2023-03-24T15:54:40;13.00;99.90
22838;DHT22;11585;51.450;-0.240;2023-03-24T15:57:20;13.00;99.90
22838;DHT22;11585;51.450;-0.240;2023-03-24T15:59:47;13.00;99.90
22838;DHT22;11585;51.450;-0.240;2023-03-24T16:02:38;13.10;99.90
22838;DHT22;11585;51.450;-0.240;2023-03-24T16:05:27;13.00;99.90
22838;DHT22;11585;51.450;-0.240;2023-03-24T16:11:03;12.90;99.90
22838;DHT22;11585;51.450;-0.240;2023-03-24T16:13:52;12.90;99.90
22838;DHT22;11585;51.450;-0.240;2023-03-24T16:16:27;13.00;99.90
22838;DHT22;11585;51.450;-0.240;2023-03-24T16:18:54;13.00;99.90
22838;DHT22;11585;51.450;-0.240;2023-03-24T16:21:28;13.00;99.90
22838;DHT22;11585;51.450;-0.240;2023-03-24T16:23:55;12.90;99.90
22838;DHT22;11585;51.450;-0.240;2023-03-24T16:26:29;13.00;99.90
22838;DHT22;11585;51.450;-0.240;2023-03-24T16:29:20;13.00;99.90
22838;DHT22;11585;51.450;-0.240;2023-03-24T16:31:48;13.00;99.90
22838;DHT22;11585;51.450;-0.240;2023-03-24T16:34:17;12.90;99.90
22838;DHT22;11585;51.450;-0.240;2023-03-24T16:36:46;12.90;99.90
22838;DHT22;11585;51.450;-0.240;2023-03-24T16:39:14;12.90;99.90
22838;DHT22;11585;51.450;-0.240;2023-03-24T16:41:41;12.90;99.90
22838;DHT22;11585;51.450;-0.240;2023-03-24T16:47:12;13.00;99.90
22838;DHT22;11585;51.450;-0.240;2023-03-24T16:49:38;12.90;99.90
22838;DHT22;11585;51.450;-0.240;2023-03-24T16:52:04;13.00;99.90
22838;DHT22;11585;51.450;-0.240;2023-03-24T16:54:30;12.90;99.90
22838;DHT22;11585;51.450;-0.240;2023-03-24T16:56:56;12.90;99.90
22838;DHT22;11585;51.450;-0.240;2023-03-24T16:59:22;12.90;99.90
22838;DHT22;11585;51.450;-0.240;2023-03-24T17:01:51;12.80;99.90
22838;DHT22;11585;51.450;-0.240;2023-03-24T17:04:20;12.80;99.90
22838;DHT22;11585;51.450;-0.240;2023-03-24T17:06:50;12.70;99.90
22838;DHT22;11585;51.450;-0.240;2023-03-24T17:09:44;12.70;99.90
22838;DHT22;11585;51.450;-0.240;2023-03-24T17:12:14;12.60;99.90
22838;DHT22;11585;51.450;-0.240;2023-03-24T17:14:40;12.50;99.90
22838;DHT22;11585;51.450;-0.240;2023-03-24T17:17:09;12.40;99.90
22838;DHT22;11585;51.450;-0.240;2023-03-24T17:19:52;12.30;99.90
22838;DHT22;11585;51.450;-0.240;2023-03-24T17:22:25;12.20;99.90
22838;DHT22;11585;51.450;-0.240;2023-03-24T17:25:12;12.10;99.90
22838;DHT22;11585;51.450;-0.240;2023-03-24T17:27:39;12.10;99.90
22838;DHT22;11585;51.450;-0.240;2023-03-24T17:30:05;12.00;99.90
22838;DHT22;11585;51.450;-0.240;2023-03-24T17:35:54;11.90;99.90
22838;DHT22;11585;51.450;-0.240;2023-03-24T17:38:19;11.70;99.90
22838;DHT22;11585;51.450;-0.240;2023-03-24T17:40:45;12.10;99.90
22838;DHT22;11585;51.450;-0.240;2023-03-24T17:43:11;11.60;99.90
22838;DHT22;11585;51.450;-0.240;2023-03-24T17:45:39;11.60;99.90
22838;DHT22;11585;51.450;-0.240;2023-03-24T17:48:05;11.60;99.90
22838;DHT22;11585;51.450;-0.240;2023-03-24T17:50:31;11.50;99.90
22838;DHT22;11585;51.450;-0.240;2023-03-24T17:53:18;11.50;99.90
22838;DHT22;11585;51.450;-0.240;2023-03-24T17:56:08;11.40;99.90
22838;DHT22;11585;51.450;-0.240;2023-03-24T17:58:37;11.40;99.90
22838;DHT22;11585;51.450;-0.240;2023-03-24T18:01:04;11.40;99.90
22838;DHT22;11585;51.450;-0.240;2023-03-24T18:03:34;11.30;99.90
22838;DHT22;11585;51.450;-0.240;2023-03-24T18:06:09;11.30;99.90
22838;DHT22;11585;51.450;-0.240;2023-03-24T18:08:36;10.20;99.90
22838;DHT22;11585;51.450;-0.240;2023-03-24T18:11:07;11.30;99.90
22838;DHT22;11585;51.450;-0.240;2023-03-24T18:13:36;11.20;99.90
22838;DHT22;11585;51.450;-0.240;2023-03-24T18:16:03;12.40;99.90
22838;DHT22;11585;51.450;-0.240;2023-03-24T18:18:31;11.20;99.90
22838;DHT22;11585;51.450;-0.240;2023-03-24T18:20:57;11.20;99.90
22838;DHT22;11585;51.450;-0.240;2023-03-24T18:23:43;10.50;99.90
22838;DHT22;11585;51.450;-0.240;2023-03-24T18:26:10;11.40;99.90
22838;DHT22;11585;51.450;-0.240;2023-03-24T18:28:37;11.30;99.90
22838;DHT22;11585;51.450;-0.240;2023-03-24T18:31:08;11.20;99.90
22838;DHT22;11585;51.450;-0.240;2023-03-24T18:33:35;11.10;99.90
22838;DHT22;11585;51.450;-0.240;2023-03-24T18:36:03;11.00;99.90
22838;DHT22;11585;51.450;-0.240;2023-03-24T18:38:30;11.10;99.90
22838;DHT22;11585;51.450;-0.240;2023-03-24T18:41:00;11.10;99.90
22838;DHT22;11585;51.450;-0.240;2023-03-24T18:43:27;11.10;99.90
22838;DHT22;11585;51.450;-0.240;2023-03-24T18:45:55;11.10;99.90
22838;DHT22;11585;51.450;-0.240;2023-03-24T18:48:21;11.10;99.90
22838;DHT22;11585;51.450;-0.240;2023-03-24T18:50:50;11.10;99.90
22838;DHT22;11585;51.450;-0.240;2023-03-24T18:53:37;11.10;99.90
22838;DHT22;11585;51.450;-0.240;2023-03-24T18:56:04;11.10;99.90
22838;DHT22;11585;51.450;-0.240;2023-03-24T18:58:30;11.10;99.90
22838;DHT22;11585;51.450;-0.240;2023-03-24T19:00:57;11.00;99.90
22838;DHT22;11585;51.450;-0.240;2023-03-24T19:06:45;11.00;99.90
22838;DHT22;11585;51.450;-0.240;2023-03-24T19:09:11;11.00;99.90
22838;DHT22;11585;51.450;-0.240;2023-03-24T19:11:38;11.00;99.90
22838;DHT22;11585;51.450;-0.240;2023-03-24T19:14:05;11.00;99.90
22838;DHT22;11585;51.450;-0.240;2023-03-24T19:16:31;11.00;99.90
22838;DHT22;11585;51.450;-0.240;2023-03-24T19:18:57;10.90;99.90
22838;DHT22;11585;51.450;-0.240;2023-03-24T19:21:23;11.00;99.90
22838;DHT22;11585;51.450;-0.240;2023-03-24T19:23:51;10.90;99.90
22838;DHT22;11585;51.450;-0.240;2023-03-24T19:26:17;10.90;99.90
22838;DHT22;11585;51.450;-0.240;2023-03-24T19:28:44;10.90;99.90
22838;DHT22;11585;51.450;-0.240;2023-03-24T19:31:18;11.00;99.90
22838;DHT22;11585;51.450;-0.240;2023-03-24T19:33:47;10.90;99.90
22838;DHT22;11585;51.450;-0.240;2023-03-24T19:36:15;11.00;99.90
22838;DHT22;11585;51.450;-0.240;2023-03-24T19:38:42;11.00;99.90
22838;DHT22;11585;51.450;-0.240;2023-03-24T19:41:11;10.90;99.90
22838;DHT22;11585;51.450;-0.240;2023-03-24T19:46:40;10.80;99.90
22838;DHT22;11585;51.450;-0.240;2023-03-24T19:49:06;10.80;99.90
22838;DHT22;11585;51.450;-0.240;2023-03-24T19:51:32;10.80;99.90
22838;DHT22;11585;51.450;-0.240;2023-03-24T19:53:59;10.80;99.90
22838;DHT22;11585;51.450;-0.240;2023-03-24T19:56:25;10.80;99.90
22838;DHT22;11585;51.450;-0.240;2023-03-24T19:58:50;10.80;99.90
22838;DHT22;11585;51.450;-0.240;2023-03-24T20:01:16;10.80;99.90